Dati Storici

Data ora Umidita' aria (%) Temperatura aria (°C) Rad globale (W/m²) Gonioanemometro (°) Tacoanemometro (m/s) Pioggia (mm)
27-06-2019 02:00 65.8 % 27.508 283.67 0.957 0 0
27-06-2019 01:50 64.6 % 27.726 261.622 1.573 0 0
27-06-2019 01:40 63.5 % 27.895 297.025 1.285 0 0
27-06-2019 01:30 62.8 % 27.834 220.74 1.127 0 0
27-06-2019 01:20 62 % 27.718 243.952 1.628 0 0
27-06-2019 01:10 61.3 % 27.948 244.105 0.841 0 0
27-06-2019 01:00 60.4 % 28.071 280.242 1.522 0 0
27-06-2019 00:50 60.6 % 27.999 238.655 1.361 0 0
27-06-2019 00:40 61.2 % 28.046 181.315 1.301 0 0
27-06-2019 00:30 61.4 % 28.135 223.233 1.23 0 0
27-06-2019 00:20 61.6 % 28.085 263.064 1.401 0 0
27-06-2019 00:10 61.8 % 28.004 259.314 1.055 0 0
27-06-2019 00:00 62 % 27.965 260.387 0.923 0 0
26-06-2019 23:50 61.8 % 27.953 263.743 1.189 0 0
26-06-2019 23:40 60.9 % 28.084 207.83 0.56 0 0
26-06-2019 23:30 59.9 % 28.317 236.842 0.775 0 0
26-06-2019 23:20 58.6 % 28.514 234.388 1.772 0 0
26-06-2019 23:10 57.7 % 28.717 218.423 1.432 0 0
26-06-2019 23:00 56.7 % 29.225 266.873 0.871 0 0
26-06-2019 22:50 56.5 % 29.362 262.664 1.566 0 0

I dati sono presentati in modo automatico a scopo informativo. In seguito a verifica i dati possono subire modifiche o essere invalidati e non riportati negli archivi definitivi.